Time;durP1;ratioP1;P1;durP2;ratioP2;P2;SDS_P1;SDS_P2;PMS_P1;PMS_P2;Temp;Humidity;BMP_temperature;BMP_pressure;BME280_temperature;BME280_humidity;BME280_pressure;Samples;Min_cycle;Max_cycle;Signal;HPM_P1;HPM_P2
2023/08/10 00:00:39;;;;;;;10.95;8.27;;;;;;;15.64;83.53;93151.75;2038010;70;20126;-77
2023/08/10 00:03:04;;;;;;;12.57;7.95;;;;;;;15.88;82.16;93142.94;2038144;70;20152;-81
2023/08/10 00:05:31;;;;;;;20.88;7.88;;;;;;;15.94;81.08;93141.16;2038399;70;20155;-79
2023/08/10 00:07:57;;;;;;;10.43;8.05;;;;;;;15.91;81.92;93136.75;2038309;70;20163;-81
2023/08/10 00:10:25;;;;;;;12.85;8.43;;;;;;;15.97;80.78;93133.44;2038146;70;20677;-78
2023/08/10 00:12:51;;;;;;;10.27;7.53;;;;;;;15.99;80.51;93136.41;2037472;70;20187;-82
2023/08/10 00:15:17;;;;;;;11.27;7.40;;;;;;;15.99;80.30;93139.25;2034640;70;20205;-81
2023/08/10 00:17:43;;;;;;;11.15;7.82;;;;;;;15.90;81.12;93143.06;2037940;70;20150;-79
2023/08/10 00:20:12;;;;;;;11.95;8.63;;;;;;;15.90;81.69;93131.69;2038401;70;20147;-78
2023/08/10 00:22:38;;;;;;;10.63;7.38;;;;;;;15.94;81.41;93140.38;2034673;70;20693;-80
2023/08/10 00:25:07;;;;;;;16.02;8.38;;;;;;;15.95;81.03;93144.72;2038487;70;20159;-82
2023/08/10 00:27:35;;;;;;;12.48;8.15;;;;;;;15.97;81.02;93137.03;2034741;70;20246;-80
2023/08/10 00:30:01;;;;;;;17.05;10.68;;;;;;;15.80;81.33;93142.56;2034715;70;20172;-82
2023/08/10 00:32:26;;;;;;;15.88;9.40;;;;;;;15.73;82.28;93133.75;2038297;70;20285;-82
2023/08/10 00:34:52;;;;;;;16.55;9.85;;;;;;;15.82;82.35;93137.00;2034583;70;20162;-82
2023/08/10 00:37:20;;;;;;;14.55;8.88;;;;;;;15.80;82.91;93129.09;2038323;70;20270;-82
2023/08/10 00:39:46;;;;;;;13.80;8.02;;;;;;;15.87;81.03;93116.66;2038336;70;20239;-81
2023/08/10 00:42:12;;;;;;;14.02;10.82;;;;;;;15.81;80.25;93121.34;2034713;70;20250;-81
2023/08/10 00:44:39;;;;;;;16.30;9.95;;;;;;;15.56;82.94;93117.25;2038225;70;20159;-81
2023/08/10 00:47:06;;;;;;;13.77;9.50;;;;;;;15.65;83.40;93115.59;2038068;70;20180;-78
2023/08/10 00:49:33;;;;;;;16.83;10.25;;;;;;;15.81;82.61;93116.38;2034604;70;20176;-79
2023/08/10 00:51:59;;;;;;;15.07;9.45;;;;;;;15.80;82.31;93108.50;2034610;70;20156;-81
2023/08/10 00:54:26;;;;;;;13.93;8.85;;;;;;;15.78;81.58;93111.97;2038315;70;20150;-82
2023/08/10 00:56:52;;;;;;;15.50;8.48;;;;;;;15.73;81.85;93113.88;2034504;70;20190;-80
2023/08/10 00:59:18;;;;;;;14.15;8.73;;;;;;;15.82;81.48;93114.28;2037898;70;20148;-79
2023/08/10 01:01:45;;;;;;;13.07;8.25;;;;;;;15.82;81.44;93119.94;2034818;70;20223;-83
2023/08/10 01:04:12;;;;;;;11.32;7.88;;;;;;;15.81;80.35;93118.50;2038336;70;20179;-81
2023/08/10 01:06:48;;;;;;;13.45;7.30;;;;;;;15.70;79.85;93120.81;2031838;70;20526;-81
2023/08/10 01:09:28;;;;;;;11.23;7.53;;;;;;;15.71;81.35;93121.56;2034726;70;20167;-81
2023/08/10 01:12:36;;;;;;;10.10;7.15;;;;;;;15.68;80.88;93112.22;2038162;70;20144;-81
2023/08/10 01:15:06;;;;;;;8.07;6.30;;;;;;;15.65;81.06;93118.44;2037604;70;20191;-81
2023/08/10 01:17:38;;;;;;;9.70;6.38;;;;;;;15.58;80.68;93108.88;2034296;70;20163;-81
2023/08/10 01:20:07;;;;;;;10.13;7.07;;;;;;;15.59;80.23;93110.31;2034428;70;20160;-82
2023/08/10 01:23:11;;;;;;;13.10;7.57;;;;;;;15.60;80.66;93114.63;2031962;70;20175;-82
2023/08/10 01:25:38;;;;;;;12.20;6.40;;;;;;;15.50;80.40;93106.34;2024104;71;20137;-78
2023/08/10 01:28:05;;;;;;;10.93;6.35;;;;;;;15.46;80.34;93100.47;2022739;70;20157;-81
2023/08/10 01:30:31;;;;;;;9.75;6.18;;;;;;;15.41;81.42;93103.75;2022461;70;20854;-81
2023/08/10 01:32:58;;;;;;;9.13;6.63;;;;;;;15.39;80.55;93109.31;2018140;71;20228;-82
2023/08/10 01:35:24;;;;;;;9.35;6.45;;;;;;;15.35;80.87;93112.72;2024005;71;20639;-82
2023/08/10 01:37:51;;;;;;;12.45;6.80;;;;;;;15.28;81.95;93110.94;2024169;71;20145;-80
2023/08/10 01:40:17;;;;;;;12.18;6.80;;;;;;;15.25;82.11;93120.69;2023651;70;20593;-80
2023/08/10 01:42:44;;;;;;;9.30;6.88;;;;;;;15.21;81.62;93111.97;2023393;70;20244;-80
2023/08/10 01:45:10;;;;;;;17.17;9.80;;;;;;;15.21;82.05;93124.06;2023751;71;20153;-81
2023/08/10 01:47:44;;;;;;;12.90;6.65;;;;;;;15.24;80.41;93116.38;2023724;71;20717;-81
2023/08/10 01:50:11;;;;;;;12.20;6.30;;;;;;;15.22;81.45;93116.31;2023838;71;20176;-81
2023/08/10 01:52:52;;;;;;;9.15;6.10;;;;;;;15.18;82.40;93116.09;2024155;71;20283;-81
2023/08/10 01:55:18;;;;;;;10.13;5.43;;;;;;;15.21;81.14;93117.66;2021197;71;20160;-80
2023/08/10 01:57:45;;;;;;;8.80;6.43;;;;;;;15.12;82.38;93116.53;2023961;71;20232;-79
2023/08/10 02:00:12;;;;;;;9.27;6.32;;;;;;;15.14;81.64;93115.88;2025252;70;20213;-80
2023/08/10 02:02:46;;;;;;;9.85;6.60;;;;;;;15.08;81.44;93127.66;2037785;70;20199;-80
2023/08/10 02:05:14;;;;;;;9.52;6.40;;;;;;;15.12;81.03;93119.38;2033809;70;20628;-80
2023/08/10 02:07:41;;;;;;;8.23;6.35;;;;;;;15.07;81.80;93108.44;2033696;70;20243;-79
2023/08/10 02:10:09;;;;;;;9.80;5.97;;;;;;;15.03;81.60;93105.38;2034539;70;20140;-81
2023/08/10 02:12:35;;;;;;;8.27;5.45;;;;;;;15.08;81.13;93107.09;2034566;70;20148;-82
2023/08/10 02:15:01;;;;;;;7.97;5.15;;;;;;;14.99;81.47;93101.00;2033860;70;20526;-81
2023/08/10 02:17:29;;;;;;;8.07;5.10;;;;;;;15.03;81.73;93103.31;2034637;70;20526;-79
2023/08/10 02:19:56;;;;;;;8.27;5.30;;;;;;;15.04;81.14;93104.78;2034659;70;20529;-78
2023/08/10 02:22:22;;;;;;;8.45;5.18;;;;;;;15.13;81.42;93115.16;2034674;70;20244;-81
2023/08/10 02:24:48;;;;;;;8.13;6.25;;;;;;;14.47;84.67;93118.78;2034041;70;20239;-78
2023/08/10 02:27:13;;;;;;;13.43;6.38;;;;;;;14.54;86.06;93111.38;2034011;70;20147;-78
2023/08/10 02:29:39;;;;;;;9.07;5.97;;;;;;;14.76;84.55;93109.72;2033914;70;20529;-79
2023/08/10 02:32:05;;;;;;;10.27;6.43;;;;;;;14.91;83.11;93109.06;2034615;70;20184;-78
2023/08/10 02:34:30;;;;;;;9.05;6.10;;;;;;;14.93;82.62;93111.28;2034551;70;20156;-78
2023/08/10 02:36:56;;;;;;;12.20;6.10;;;;;;;15.01;82.16;93117.38;2034449;70;20132;-81
2023/08/10 02:39:21;;;;;;;7.97;5.55;;;;;;;14.94;82.25;93118.44;2034488;70;20248;-81
2023/08/10 02:41:47;;;;;;;9.15;6.45;;;;;;;14.99;82.33;93118.00;2033998;70;20156;-81
2023/08/10 02:44:14;;;;;;;9.18;5.90;;;;;;;15.03;79.83;93116.72;2034321;70;20144;-78
2023/08/10 02:46:39;;;;;;;10.15;6.10;;;;;;;14.90;79.95;93121.78;2034710;70;20160;-81
2023/08/10 02:49:05;;;;;;;12.98;6.72;;;;;;;14.69;82.10;93113.59;2034308;70;20175;-80
2023/08/10 02:51:31;;;;;;;8.93;5.85;;;;;;;14.79;82.14;93116.22;2033962;70;20140;-81
2023/08/10 02:53:56;;;;;;;8.80;6.32;;;;;;;14.73;81.66;93103.19;2034089;70;20179;-81
2023/08/10 02:56:22;;;;;;;10.35;6.50;;;;;;;14.84;81.89;93120.72;2033980;70;20179;-80
2023/08/10 02:58:47;;;;;;;11.77;5.82;;;;;;;14.86;81.90;93118.00;2034498;70;20607;-80
2023/08/10 03:01:13;;;;;;;10.32;6.10;;;;;;;14.88;82.23;93116.00;2034429;70;20144;-79
2023/08/10 03:03:40;;;;;;;9.40;5.68;;;;;;;14.92;82.31;93110.53;2034024;70;20163;-82
2023/08/10 03:06:05;;;;;;;10.43;5.63;;;;;;;14.96;81.83;93121.34;2036535;70;20158;-81
2023/08/10 03:08:31;;;;;;;11.43;5.50;;;;;;;14.88;81.14;93124.50;2034538;70;20234;-81
2023/08/10 03:10:58;;;;;;;11.52;6.22;;;;;;;14.81;81.48;93124.84;2034500;70;20745;-81
2023/08/10 03:13:24;;;;;;;9.70;6.40;;;;;;;14.91;81.94;93131.75;2034658;70;20182;-81
2023/08/10 03:15:55;;;;;;;8.50;6.07;;;;;;;14.86;82.68;93127.25;2037995;70;20140;-82
2023/08/10 03:18:22;;;;;;;10.65;6.38;;;;;;;14.89;82.69;93128.84;2034567;70;20163;-82
2023/08/10 03:20:48;;;;;;;11.00;6.47;;;;;;;14.93;82.18;93128.28;2034903;70;20151;-79
2023/08/10 03:23:14;;;;;;;9.32;5.32;;;;;;;14.99;81.45;93132.19;2035049;70;20146;-81
2023/08/10 03:25:40;;;;;;;8.05;5.80;;;;;;;14.92;82.56;93129.66;2038584;70;20196;-81
2023/08/10 03:28:06;;;;;;;12.95;5.95;;;;;;;14.99;81.80;93129.34;2038578;70;20140;-78
2023/08/10 03:30:32;;;;;;;10.77;5.82;;;;;;;15.01;81.60;93131.53;2034909;70;20265;-79
2023/08/10 03:32:58;;;;;;;7.78;5.60;;;;;;;15.00;81.35;93124.41;2035033;70;20144;-80
2023/08/10 03:35:24;;;;;;;7.72;5.47;;;;;;;15.02;81.81;93129.44;2035095;70;20158;-81
2023/08/10 03:37:51;;;;;;;8.40;5.70;;;;;;;15.05;81.50;93133.84;2035005;70;20144;-82
2023/08/10 03:40:16;;;;;;;8.25;5.15;;;;;;;15.03;82.00;93136.56;2034881;70;20620;-81
2023/08/10 03:42:43;;;;;;;8.35;5.35;;;;;;;15.00;80.91;93132.91;2032322;70;20147;-81
2023/08/10 03:45:09;;;;;;;7.60;5.50;;;;;;;14.98;81.96;93138.47;2034845;70;20163;-81
2023/08/10 03:47:35;;;;;;;7.30;5.30;;;;;;;14.97;82.48;93137.00;2034850;70;20490;-81
2023/08/10 03:50:02;;;;;;;9.02;5.28;;;;;;;15.04;81.19;93138.78;2034927;70;20150;-79
2023/08/10 03:52:28;;;;;;;7.68;5.15;;;;;;;15.03;81.16;93137.31;2034860;70;20151;-79
2023/08/10 03:54:54;;;;;;;14.45;5.88;;;;;;;15.04;81.00;93135.97;2038301;70;20140;-79
2023/08/10 03:57:19;;;;;;;7.50;5.25;;;;;;;15.06;80.70;93132.47;2038384;70;20160;-77
2023/08/10 03:59:46;;;;;;;10.18;5.30;;;;;;;15.06;81.54;93141.00;2034778;70;20155;-80
2023/08/10 04:02:12;;;;;;;7.43;4.85;;;;;;;15.09;81.07;93151.06;2038502;70;20510;-78
2023/08/10 04:04:38;;;;;;;8.05;4.88;;;;;;;15.04;82.04;93152.97;2034985;70;20658;-80
2023/08/10 04:07:04;;;;;;;8.40;5.10;;;;;;;15.02;82.44;93160.63;2031044;70;20152;-81
2023/08/10 04:09:30;;;;;;;6.53;5.07;;;;;;;14.67;83.50;93175.84;2031714;70;20136;-81
2023/08/10 04:11:55;;;;;;;7.20;5.78;;;;;;;14.58;84.35;93177.50;2031076;70;20600;-81
2023/08/10 04:14:22;;;;;;;9.32;5.60;;;;;;;14.85;82.92;93178.91;2031552;70;20152;-81
2023/08/10 04:16:49;;;;;;;8.50;5.60;;;;;;;14.84;82.87;93183.81;2033805;70;20687;-80
2023/08/10 04:19:14;;;;;;;7.93;5.90;;;;;;;14.83;82.21;93178.78;2034693;70;20175;-79
2023/08/10 04:21:40;;;;;;;8.63;5.57;;;;;;;14.91;82.34;93173.53;2035216;70;20143;-81
2023/08/10 04:24:06;;;;;;;11.43;5.78;;;;;;;14.95;80.67;93179.44;2034771;70;20140;-79
2023/08/10 04:26:32;;;;;;;6.40;5.13;;;;;;;14.93;82.35;93174.38;2035033;70;20534;-80
2023/08/10 04:28:57;;;;;;;11.13;5.50;;;;;;;14.99;82.06;93171.88;2035048;70;20156;-80
2023/08/10 04:31:23;;;;;;;6.65;4.78;;;;;;;15.06;81.16;93170.06;2035202;70;20468;-77
2023/08/10 04:33:49;;;;;;;6.82;4.85;;;;;;;15.10;81.59;93161.03;2035206;70;20181;-79
2023/08/10 04:36:14;;;;;;;8.02;5.43;;;;;;;15.07;81.82;93163.03;2035070;70;20148;-80
2023/08/10 04:38:40;;;;;;;7.10;5.05;;;;;;;15.14;80.60;93155.59;2035121;70;20504;-81
2023/08/10 04:41:05;;;;;;;7.70;4.72;;;;;;;15.00;81.16;93155.59;2035114;70;20507;-80
2023/08/10 04:43:31;;;;;;;7.78;5.05;;;;;;;15.02;81.56;93155.69;2035179;70;20202;-79
2023/08/10 04:45:57;;;;;;;9.82;5.70;;;;;;;15.02;81.74;93178.38;2035106;70;20144;-78
2023/08/10 04:48:22;;;;;;;9.10;5.10;;;;;;;15.04;80.77;93178.50;2035192;70;20694;-78
2023/08/10 04:50:48;;;;;;;7.80;5.30;;;;;;;14.90;82.96;93187.00;2035169;70;20760;-81
2023/08/10 04:53:13;;;;;;;8.20;5.88;;;;;;;14.85;82.79;93190.25;2035085;70;20144;-79
2023/08/10 04:55:39;;;;;;;9.60;5.38;;;;;;;14.86;82.82;93188.88;2035057;70;20158;-79
2023/08/10 04:58:04;;;;;;;6.78;4.95;;;;;;;14.94;82.34;93189.31;2035071;70;20168;-76
2023/08/10 05:00:30;;;;;;;8.55;5.60;;;;;;;15.09;80.94;93190.78;2035494;70;20243;-79
2023/08/10 05:02:56;;;;;;;6.68;4.90;;;;;;;15.20;80.20;93184.97;2035190;70;20151;-78
2023/08/10 05:05:21;;;;;;;11.15;5.30;;;;;;;15.23;80.37;93186.56;2036988;70;20696;-77
2023/08/10 05:07:47;;;;;;;10.88;5.50;;;;;;;15.07;82.33;93185.72;2041623;70;20239;-78
2023/08/10 05:10:13;;;;;;;9.35;5.00;;;;;;;15.22;81.61;93187.94;2038317;70;20212;-80
2023/08/10 05:12:39;;;;;;;10.73;5.38;;;;;;;15.31;80.97;93189.09;2041566;70;20144;-79
2023/08/10 05:15:06;;;;;;;10.52;5.03;;;;;;;15.38;81.26;93193.69;2038280;70;20139;-79
2023/08/10 05:17:31;;;;;;;8.20;4.88;;;;;;;15.38;81.85;93190.13;2041814;70;20151;-81
2023/08/10 05:19:57;;;;;;;8.85;5.30;;;;;;;15.47;81.49;93184.22;2041676;70;20600;-82
2023/08/10 05:22:23;;;;;;;9.35;5.38;;;;;;;15.54;78.81;93195.91;2041546;70;20210;-78
2023/08/10 05:24:52;;;;;;;10.15;5.68;;;;;;;15.61;78.60;93197.66;2041520;70;20167;-82
2023/08/10 05:27:17;;;;;;;8.45;6.13;;;;;;;15.64;79.71;93202.84;2041539;70;20525;-79
2023/08/10 05:29:43;;;;;;;7.93;5.75;;;;;;;15.68;79.86;93207.97;2041518;70;20163;-79
2023/08/10 05:32:08;;;;;;;7.13;5.53;;;;;;;15.78;79.41;93208.47;2041642;70;20170;-81
2023/08/10 05:34:34;;;;;;;12.30;6.35;;;;;;;15.78;79.33;93211.31;2041546;70;20231;-83
2023/08/10 05:37:00;;;;;;;9.75;6.20;;;;;;;15.79;77.95;93215.63;2041500;70;20163;-82
2023/08/10 05:39:25;;;;;;;9.68;6.97;;;;;;;15.69;80.02;93215.84;2041444;70;20158;-81
2023/08/10 05:41:51;;;;;;;8.23;6.72;;;;;;;15.85;79.85;93218.03;2038150;70;20143;-80
2023/08/10 05:44:17;;;;;;;8.45;6.68;;;;;;;16.04;77.91;93214.00;2041329;70;20606;-83
2023/08/10 05:46:44;;;;;;;11.52;6.30;;;;;;;16.16;78.86;93223.81;2041464;70;20266;-81
2023/08/10 05:49:10;;;;;;;10.98;6.85;;;;;;;16.12;78.25;93223.63;2041469;70;20151;-84
2023/08/10 05:51:35;;;;;;;9.35;6.55;;;;;;;16.23;77.63;93227.72;2041665;70;20136;-84
2023/08/10 05:54:01;;;;;;;11.00;8.30;;;;;;;15.69;80.20;93224.38;2041769;70;20230;-78
2023/08/10 05:56:28;;;;;;;11.88;9.25;;;;;;;16.05;77.08;93227.56;2041460;70;20303;-80
2023/08/10 05:58:53;;;;;;;12.15;9.23;;;;;;;16.09;79.16;93238.38;2041265;70;20147;-79
2023/08/10 06:01:19;;;;;;;19.20;11.35;;;;;;;15.81;80.65;93223.53;2041697;70;20158;-82
2023/08/10 06:03:44;;;;;;;16.92;12.10;;;;;;;15.54;82.65;93227.09;2041431;70;20597;-80
2023/08/10 06:06:10;;;;;;;19.40;13.13;;;;;;;15.48;84.40;93231.09;2041485;70;20143;-78
2023/08/10 06:08:36;;;;;;;20.60;13.27;;;;;;;15.58;83.21;93230.13;2041365;70;20170;-79
2023/08/10 06:11:05;;;;;;;15.88;12.00;;;;;;;15.75;83.11;93230.34;2041375;70;20139;-78
2023/08/10 06:13:31;;;;;;;19.40;12.73;;;;;;;15.66;84.55;93234.16;2041658;70;20156;-79
2023/08/10 06:15:57;;;;;;;18.08;11.82;;;;;;;16.02;81.90;93238.06;2038240;70;20266;-81
2023/08/10 06:18:23;;;;;;;14.45;11.05;;;;;;;16.35;80.03;93245.31;2041511;70;20249;-82
2023/08/10 06:20:48;;;;;;;17.45;11.05;;;;;;;16.48;77.39;93238.84;2041653;70;20202;-85
2023/08/10 06:23:14;;;;;;;15.55;10.27;;;;;;;16.53;77.51;93245.47;2041470;70;20628;-85
2023/08/10 06:25:40;;;;;;;17.20;10.07;;;;;;;16.52;78.42;93247.56;2041457;70;20144;-84
2023/08/10 06:28:09;;;;;;;15.73;10.23;;;;;;;16.41;78.62;93237.09;2041466;70;20155;-80
2023/08/10 06:30:35;;;;;;;17.75;11.45;;;;;;;15.96;81.51;93237.03;2041043;70;20178;-79
2023/08/10 06:33:01;;;;;;;15.77;10.48;;;;;;;16.36;77.69;93246.09;2041496;70;20513;-83
2023/08/10 06:35:27;;;;;;;20.05;11.15;;;;;;;16.49;79.46;93237.50;2041179;70;20151;-82
2023/08/10 06:37:53;;;;;;;18.17;11.23;;;;;;;16.55;78.68;93239.88;2041296;70;20259;-83
2023/08/10 06:40:20;;;;;;;21.05;10.88;;;;;;;16.42;79.73;93237.84;2041369;70;20155;-82
2023/08/10 06:42:47;;;;;;;12.75;9.93;;;;;;;16.33;78.97;93233.88;2041332;70;20162;-81
2023/08/10 06:45:30;;;;;;;12.48;10.55;;;;;;;16.35;79.41;93233.97;2038012;70;20159;-83
2023/08/10 06:47:55;;;;;;;14.93;10.40;;;;;;;16.58;78.06;93238.59;2041418;70;20143;-81
2023/08/10 06:50:21;;;;;;;19.83;10.63;;;;;;;16.64;77.50;93236.06;2041341;70;20138;-84
2023/08/10 06:52:47;;;;;;;15.30;10.65;;;;;;;16.41;78.43;93233.53;2038046;70;20143;-83
2023/08/10 06:55:12;;;;;;;16.45;10.18;;;;;;;16.11;79.74;93238.47;2041123;70;20530;-83
2023/08/10 06:57:38;;;;;;;13.80;10.35;;;;;;;16.39;78.74;93241.94;2041236;70;20326;-83
2023/08/10 07:00:07;;;;;;;15.75;10.60;;;;;;;16.30;80.24;93243.66;2041310;70;20151;-83
2023/08/10 07:02:34;;;;;;;15.98;10.70;;;;;;;16.32;80.80;93243.78;2040978;70;20171;-84
2023/08/10 07:05:00;;;;;;;13.40;9.73;;;;;;;16.76;78.16;93244.44;2038030;70;20577;-81
2023/08/10 07:07:26;;;;;;;16.05;9.82;;;;;;;16.93;77.01;93229.59;2041091;70;20146;-81
2023/08/10 07:09:52;;;;;;;13.45;9.63;;;;;;;17.22;75.70;93248.66;2041124;70;20163;-79
2023/08/10 07:12:18;;;;;;;13.02;9.48;;;;;;;17.31;75.17;93243.34;2037828;70;20178;-83
2023/08/10 07:14:45;;;;;;;15.07;9.27;;;;;;;17.16;75.60;93236.28;2040820;70;20151;-86
2023/08/10 07:17:12;;;;;;;13.90;9.15;;;;;;;16.89;75.93;93240.03;2036298;70;20697;-80
2023/08/10 07:19:38;;;;;;;18.35;10.02;;;;;;;17.07;76.55;93240.88;2040928;70;20246;-83
2023/08/10 07:22:03;;;;;;;15.60;9.60;;;;;;;17.30;76.39;93254.00;2036286;70;20150;-80
2023/08/10 07:24:29;;;;;;;19.45;9.48;;;;;;;17.40;76.10;93254.44;2040993;70;20155;-83
2023/08/10 07:26:56;;;;;;;11.38;8.98;;;;;;;17.44;76.03;93256.75;2041242;70;20197;-89
2023/08/10 07:29:22;;;;;;;14.68;9.27;;;;;;;17.69;74.10;93262.13;2041214;70;20150;-83
2023/08/10 07:31:48;;;;;;;11.75;8.80;;;;;;;17.66;73.29;93259.84;2038197;70;20136;-81
2023/08/10 07:34:14;;;;;;;13.68;9.10;;;;;;;17.53;73.98;93245.06;2041354;70;20187;-80
2023/08/10 07:36:40;;;;;;;11.00;8.55;;;;;;;17.79;73.01;93250.47;2038104;70;20218;-80
2023/08/10 07:39:06;;;;;;;10.93;8.60;;;;;;;17.61;72.88;93253.22;2041104;70;20150;-80
2023/08/10 07:41:33;;;;;;;12.77;9.52;;;;;;;17.39;72.69;93252.97;2037896;70;20147;-82
2023/08/10 07:44:00;;;;;;;14.18;9.30;;;;;;;17.51;73.48;93247.84;2041066;70;20549;-83
2023/08/10 07:46:27;;;;;;;12.80;9.05;;;;;;;17.91;72.03;93253.09;2037937;70;20150;-81
2023/08/10 07:48:52;;;;;;;13.18;9.10;;;;;;;17.96;71.70;93255.47;2037885;70;20661;-81
2023/08/10 07:51:18;;;;;;;11.63;8.70;;;;;;;18.09;71.89;93259.56;2041322;70;20163;-82
2023/08/10 07:53:45;;;;;;;13.48;8.48;;;;;;;18.29;70.97;93263.25;2039181;70;20230;-87
2023/08/10 07:56:11;;;;;;;13.25;8.55;;;;;;;17.82;71.82;93256.97;2042492;70;20147;-84
2023/08/10 07:58:37;;;;;;;14.57;8.20;;;;;;;17.87;70.75;93267.16;2041065;70;20151;-81
2023/08/10 08:01:06;;;;;;;12.45;8.30;;;;;;;17.54;72.31;93257.91;2041392;70;20201;-85
2023/08/10 08:03:32;;;;;;;9.27;7.82;;;;;;;18.24;71.04;93269.44;2037415;70;20762;-81
2023/08/10 08:05:58;;;;;;;10.25;7.60;;;;;;;18.45;69.85;93271.00;2037674;70;20152;-80
2023/08/10 08:08:24;;;;;;;9.95;7.60;;;;;;;18.56;69.89;93269.31;2038724;70;20189;-82
2023/08/10 08:10:50;;;;;;;12.82;8.40;;;;;;;18.07;69.56;93273.00;2038539;70;20247;-83
2023/08/10 08:13:15;;;;;;;12.52;8.40;;;;;;;18.09;69.74;93279.50;2037980;70;20187;-81
2023/08/10 08:15:43;;;;;;;12.82;8.50;;;;;;;17.81;70.50;93270.47;2038545;70;20276;-83
2023/08/10 08:18:41;;;;;;;11.02;9.00;;;;;;;18.07;69.60;93276.56;2038105;70;20654;-81
2023/08/10 08:21:25;;;;;;;12.52;8.70;;;;;;;18.06;69.69;93268.69;2038757;70;20136;-80
2023/08/10 08:23:52;;;;;;;10.38;7.65;;;;;;;18.68;68.95;93270.50;2040854;70;20813;-84
2023/08/10 08:26:19;;;;;;;10.07;7.53;;;;;;;18.69;68.40;93266.31;2037259;70;20162;-82
2023/08/10 08:28:46;;;;;;;10.07;7.07;;;;;;;18.74;67.62;93276.50;2038419;70;20196;-81
2023/08/10 08:31:12;;;;;;;9.70;7.30;;;;;;;18.88;67.45;93272.75;2037798;70;20238;-82
2023/08/10 08:33:41;;;;;;;11.25;7.88;;;;;;;18.72;66.90;93269.97;2038506;70;20179;-82
2023/08/10 08:36:07;;;;;;;12.30;9.07;;;;;;;18.54;67.52;93267.09;2038516;70;20195;-82
2023/08/10 08:38:33;;;;;;;12.52;8.98;;;;;;;18.64;67.26;93261.06;2037642;70;20899;-82
2023/08/10 08:41:03;;;;;;;10.57;9.07;;;;;;;18.74;67.60;93267.94;2037494;70;20655;-83
2023/08/10 08:43:29;;;;;;;11.55;7.93;;;;;;;18.75;67.33;93262.97;2037083;70;20606;-83
2023/08/10 08:45:58;;;;;;;10.65;8.35;;;;;;;18.78;67.18;93268.09;2037570;70;20614;-85
2023/08/10 08:48:27;;;;;;;9.68;7.25;;;;;;;19.07;65.33;93260.63;2034471;70;20152;-85
2023/08/10 08:50:53;;;;;;;9.73;7.07;;;;;;;19.34;65.02;93262.38;2037647;70;20266;-84
2023/08/10 08:53:19;;;;;;;11.65;7.60;;;;;;;19.07;66.10;93254.19;2038155;70;20203;-85
2023/08/10 08:55:48;;;;;;;12.20;7.75;;;;;;;19.26;64.91;93251.38;2038420;70;20144;-82
2023/08/10 08:58:16;;;;;;;8.73;7.38;;;;;;;19.13;66.11;93240.88;2037992;70;20147;-85
2023/08/10 09:00:50;;;;;;;11.75;8.05;;;;;;;19.72;65.36;93248.78;2041448;70;20143;-82
2023/08/10 09:03:16;;;;;;;10.23;7.78;;;;;;;19.87;64.76;93249.28;2041732;70;20251;-83
2023/08/10 09:05:44;;;;;;;12.48;7.85;;;;;;;19.98;63.60;93240.41;2041508;70;20136;-82
2023/08/10 09:08:11;;;;;;;12.80;7.20;;;;;;;20.23;63.93;93233.38;2038434;70;20570;-83
2023/08/10 09:10:38;;;;;;;10.55;7.97;;;;;;;20.30;62.48;93237.19;2041606;70;20162;-83
2023/08/10 09:13:12;;;;;;;10.20;8.02;;;;;;;20.06;62.89;93239.94;2041617;70;20223;-85
2023/08/10 09:15:37;;;;;;;10.32;8.02;;;;;;;20.18;62.75;93228.91;2041496;70;20620;-84
2023/08/10 09:18:05;;;;;;;14.38;9.18;;;;;;;19.84;62.29;93242.78;2041726;70;20155;-81
2023/08/10 09:20:30;;;;;;;10.07;8.05;;;;;;;20.75;61.29;93239.34;2042243;70;20242;-82
2023/08/10 09:22:57;;;;;;;12.52;7.60;;;;;;;20.85;61.34;93233.25;2038285;70;20132;-84
2023/08/10 09:25:23;;;;;;;11.07;7.75;;;;;;;20.87;59.78;93236.16;2041767;70;20175;-84
2023/08/10 09:27:50;;;;;;;9.85;7.57;;;;;;;20.98;60.21;93240.06;2041608;70;20233;-83
2023/08/10 09:30:17;;;;;;;10.55;8.20;;;;;;;21.37;59.04;93236.25;2035419;70;20147;-84
2023/08/10 09:32:43;;;;;;;11.13;8.15;;;;;;;21.17;59.04;93235.63;2041589;70;20167;-83
2023/08/10 09:35:16;;;;;;;10.60;8.00;;;;;;;20.50;60.61;93228.56;2038313;70;20195;-82
2023/08/10 09:37:43;;;;;;;9.85;7.30;;;;;;;20.66;62.51;93228.34;2041572;70;20155;-83
2023/08/10 09:40:11;;;;;;;9.85;7.60;;;;;;;21.48;59.54;93220.81;2038353;70;20151;-83
2023/08/10 09:42:41;;;;;;;12.13;7.40;;;;;;;21.42;60.74;93220.66;2041510;70;20194;-83
2023/08/10 09:45:10;;;;;;;10.82;7.78;;;;;;;21.57;59.42;93222.50;2041373;70;20150;-84
2023/08/10 09:47:43;;;;;;;10.60;8.07;;;;;;;21.76;57.80;93223.75;2041465;70;20285;-83
2023/08/10 09:50:12;;;;;;;10.90;8.38;;;;;;;21.21;58.69;93221.41;2038314;70;20170;-86
2023/08/10 09:52:38;;;;;;;10.13;7.93;;;;;;;22.24;57.74;93215.00;2038317;70;20186;-86
2023/08/10 09:55:06;;;;;;;10.65;7.45;;;;;;;22.51;56.05;93219.28;2038361;70;20139;-85
2023/08/10 09:57:32;;;;;;;9.60;7.75;;;;;;;22.39;56.11;93209.63;2041520;70;20189;-86
2023/08/10 09:59:58;;;;;;;9.40;7.13;;;;;;;22.13;57.00;93209.69;2041361;70;20227;-89
2023/08/10 10:02:25;;;;;;;10.77;8.35;;;;;;;21.67;57.22;93218.47;2041106;70;20147;-82
2023/08/10 10:04:51;;;;;;;10.32;7.72;;;;;;;22.02;58.26;93209.38;2041446;70;20151;-84
2023/08/10 10:07:28;;;;;;;13.02;7.55;;;;;;;22.04;57.55;93215.19;2041627;70;20147;-83
2023/08/10 10:09:57;;;;;;;11.70;7.68;;;;;;;22.27;57.62;93207.94;2041751;70;20179;-84
2023/08/10 10:12:23;;;;;;;9.43;7.15;;;;;;;22.28;57.32;93205.78;2041592;70;20226;-84
2023/08/10 10:14:51;;;;;;;10.77;7.55;;;;;;;21.88;58.08;93211.16;2041740;70;20143;-83
2023/08/10 10:17:19;;;;;;;8.80;6.75;;;;;;;22.39;57.89;93213.22;2038218;70;20215;-87
2023/08/10 10:19:51;;;;;;;9.82;7.22;;;;;;;22.41;58.54;93221.91;2038463;70;20730;-84
2023/08/10 10:22:18;;;;;;;8.75;6.35;;;;;;;22.86;56.80;93207.88;2041617;70;20183;-83
2023/08/10 10:24:44;;;;;;;9.48;6.57;;;;;;;23.15;56.22;93212.88;2041789;70;20259;-86
2023/08/10 10:27:13;;;;;;;10.05;7.30;;;;;;;22.62;56.01;93208.75;2041582;70;20582;-83
2023/08/10 10:29:40;;;;;;;12.70;7.32;;;;;;;23.02;54.75;93200.41;2040840;70;20244;-86
2023/08/10 10:32:11;;;;;;;9.82;7.78;;;;;;;23.59;54.37;93212.34;2041588;70;20582;-86
2023/08/10 10:34:38;;;;;;;9.00;7.60;;;;;;;23.95;52.97;93198.00;2041621;70;20211;-87
2023/08/10 10:37:13;;;;;;;8.45;6.70;;;;;;;22.88;53.19;93205.78;2041497;70;20171;-88
2023/08/10 10:39:48;;;;;;;8.45;6.10;;;;;;;23.69;53.32;93200.38;2041626;70;20163;-88
2023/08/10 10:42:18;;;;;;;8.02;6.40;;;;;;;23.23;54.12;93201.56;2041638;70;20135;-84
2023/08/10 10:44:59;;;;;;;8.05;6.43;;;;;;;22.77;53.80;93189.72;2038381;70;20177;-81
2023/08/10 10:47:35;;;;;;;8.50;6.90;;;;;;;23.51;52.89;93197.84;2042094;70;20196;-84
2023/08/10 10:50:23;;;;;;;9.05;6.45;;;;;;;23.10;54.17;93194.09;2041561;70;20151;-83
2023/08/10 10:52:56;;;;;;;8.35;7.30;;;;;;;23.35;53.59;93189.59;2041578;70;20175;-86
2023/08/10 10:55:23;;;;;;;8.55;6.18;;;;;;;23.50;53.07;93193.50;2041498;70;20179;-85
2023/08/10 10:57:50;;;;;;;7.30;6.20;;;;;;;23.35;52.96;93195.34;2041413;70;20192;-82
2023/08/10 11:00:18;;;;;;;8.80;6.38;;;;;;;22.93;54.04;93189.41;2041258;70;20542;-82
2023/08/10 11:02:45;;;;;;;8.13;5.90;;;;;;;23.48;53.74;93191.31;2041391;70;20238;-83
2023/08/10 11:05:12;;;;;;;10.05;5.72;;;;;;;23.26;53.49;93188.69;2041268;70;20214;-86
2023/08/10 11:07:46;;;;;;;7.10;6.13;;;;;;;23.01;54.19;93183.84;2041508;70;20147;-84
2023/08/10 11:10:12;;;;;;;8.32;5.45;;;;;;;23.78;53.31;93185.47;2041416;70;20206;-79
2023/08/10 11:12:39;;;;;;;6.30;5.43;;;;;;;24.35;53.39;93180.03;2038302;70;20145;-82
2023/08/10 11:15:07;;;;;;;9.75;5.80;;;;;;;23.80;51.92;93179.03;2041370;70;20171;-82
2023/08/10 11:17:32;;;;;;;8.30;6.20;;;;;;;23.64;51.87;93175.81;2041318;70;20146;-83
2023/08/10 11:19:58;;;;;;;8.05;7.07;;;;;;;23.48;52.54;93182.69;2041359;70;20139;-83
2023/08/10 11:22:23;;;;;;;8.07;5.70;;;;;;;24.23;51.74;93174.78;2041320;70;20194;-85
2023/08/10 11:24:49;;;;;;;7.78;5.50;;;;;;;23.84;51.46;93170.50;2041188;70;20207;-86
2023/08/10 11:27:15;;;;;;;7.93;5.53;;;;;;;24.41;50.48;93177.25;2041339;70;20231;-87